Bourbonnais, IL (60914)

3:05 AM CDT on July 25, 2016 (GMT -0500)
Quail hallow | | Change Station

Elev 669 ft 41.16 °N, 87.84 °W | Updated 13 minutes ago

Scattered Clouds
Scattered Clouds
71.6 °F
Feels Like 70 °F
N
1.1
Wind Variable Wind from East

Today
High -- | Low -- °F
--% Chance of Precip.
Yesterday
High -- | Low -- °F
Precip. -- in
Pressure 30.00 in
Visibility 10.0 miles
Clouds Scattered Clouds 6000 ft
Heat Index 70 °F
Dew Point 67 °F
Humidity 85%
Rainfall 0.00 in
Snow Depth Not available.
5:40 AM 8:14 PM
Waning Gibbous, 68% visible
METAR KIKK 250755Z AUTO 26006KT 10SM SCT060 22/20 A3000 RMK AO2 T02150195
Pressure 30.00 in
Visibility 10.0 miles
Clouds Scattered Clouds 6000 ft
Heat Index 70 °F
Dew Point 67 °F
Humidity 85%
Rainfall 0.00 in
Snow Depth Not available.
5:40 AM 8:14 PM
Waning Gibbous, 68% visible
METAR KIKK 250755Z AUTO 26006KT 10SM SCT060 22/20 A3000 RMK AO2 T02150195

10-Day Weather Forecast

Almanac

Astronomy

Jul. 25, 2016 Rise Set
Actual Time
Civil Twilight
Nautical Twilight
Astronomical Twilight
Moon
Length of Visible Light
Length of Day
Tomorrow will be .
, % of the Moon is Illuminated

Today's Extremes

State Highs State Lows

Community

WunderPhotos

Upload Photos

1,927,274 photos uploaded!

WunderBlog® & News

Nearby

Air Quality

  Air Quality AQ Index Pollutant
Not available.

Snow Depth

Station Depth Elevation

Earthquake Activity

City Distance Mag. Time & Date
Minimum magnitude displayed is 2.5.

Coastal Water Temperatures

Place Temperature

Stations

Nearby Weather Stations

Station Location Temp. Windchill Dew Point Humidity Wind Precip. Elev Updated Type
                   

Watches & Warnings

There are currently no watches in effect.